Waynesville, MO

11:24 PM CDT on August 30, 2015 (GMT -0500)
Pulaski County MO OEM1 | | Change Station
CLOSE
Current Station
Personal Weather Station
Location: Dixon, MO
Elevation: 1010 ft
Nearby Weather Stations

Elev 1010 ft 37.86 °N, 92.09 °W | Updated 2 seconds ago

Clear
Clear
72.0 °F
Feels Like 72.0 °F
N
0.0
Wind Variable Wind from SSE
Gusts 1.1 mph

Today
High -- | Low -- °F
--% Chance of Precip.
Yesterday
High -- | Low -- °F
Precip. -- in
6:36 AM 7:41 PM
Full, 97% visible
Pressure 29.99 in
Visibility 9.0 miles
Clouds Clear
Dew Point 71 °F
Humidity 98%
Rainfall in
Snow Depth Not available.
UV 0.0 out of 12
Pollen 10.30 out of 12
Air Quality Not available.
Flu Activity Not available.
METAR KTBN 310358Z AUTO 16002KT 9SM CLR 22/22 A3001 RMK AO2 SLP155 T02230215
Pressure 29.99 in
Visibility 9.0 miles
Clouds Clear
Dew Point 71 °F
Humidity 98%
Rainfall in
Snow Depth Not available.
UV 0.0 out of 12
Pollen 10.30 out of 12
Air Quality Not available.
Flu Activity Not available.
METAR KTBN 310358Z AUTO 16002KT 9SM CLR 22/22 A3001 RMK AO2 SLP155 T02230215

10-Day Weather Forecast

×

Almanac

Astronomy

Aug. 30, 2015 Rise Set
Actual Time
Civil Twilight
Nautical Twilight
Astronomical Twilight
Moon
Length of Visible Light
Length of Day
Tomorrow will be .
, % of the Moon is Illuminated

Today's Extremes

State Highs State Lows

Community

WunderPhotos

Upload Photos

1,851,198 photos uploaded!

WunderBlogs® & News

Nearby

Air Quality

  Air Quality AQ Index Pollutant
Not available.

Snow Depth

Station Depth Elevation

Earthquake Activity

City Distance Mag. Time & Date
Minimum magnitude displayed is 2.5.

Coastal Water Temperatures

Place Temperature

Stations

Nearby Weather Stations

Station Location Temp. Windchill Dew Point Humidity Wind Precip. Elev Updated Type